sensor_id;sensor_type;location;lat;lon;timestamp;temperature;humidity
32296;DHT22;18781;51.550;5.418;2022-08-07T00:01:07;18.60;52.00
32296;DHT22;18781;51.550;5.418;2022-08-07T00:03:33;18.60;52.20
32296;DHT22;18781;51.550;5.418;2022-08-07T00:05:59;18.50;52.20
32296;DHT22;18781;51.550;5.418;2022-08-07T00:08:25;18.50;52.30
32296;DHT22;18781;51.550;5.418;2022-08-07T00:10:51;18.50;52.50
32296;DHT22;18781;51.550;5.418;2022-08-07T00:13:20;18.40;52.60
32296;DHT22;18781;51.550;5.418;2022-08-07T00:15:46;18.40;52.80
32296;DHT22;18781;51.550;5.418;2022-08-07T00:18:16;18.30;52.70
32296;DHT22;18781;51.550;5.418;2022-08-07T00:20:42;18.30;52.90
32296;DHT22;18781;51.550;5.418;2022-08-07T00:23:08;18.30;52.80
32296;DHT22;18781;51.550;5.418;2022-08-07T00:25:34;18.30;53.10
32296;DHT22;18781;51.550;5.418;2022-08-07T00:28:00;18.20;52.90
32296;DHT22;18781;51.550;5.418;2022-08-07T00:30:26;18.20;53.10
32296;DHT22;18781;51.550;5.418;2022-08-07T00:32:52;18.20;53.00
32296;DHT22;18781;51.550;5.418;2022-08-07T00:35:18;18.10;53.20
32296;DHT22;18781;51.550;5.418;2022-08-07T00:37:44;18.10;53.20
32296;DHT22;18781;51.550;5.418;2022-08-07T00:40:11;18.10;53.30
32296;DHT22;18781;51.550;5.418;2022-08-07T00:42:36;18.00;53.40
32296;DHT22;18781;51.550;5.418;2022-08-07T00:45:03;18.00;54.00
32296;DHT22;18781;51.550;5.418;2022-08-07T00:47:30;18.00;53.70
32296;DHT22;18781;51.550;5.418;2022-08-07T00:49:55;17.90;53.60
32296;DHT22;18781;51.550;5.418;2022-08-07T00:52:21;17.90;53.70
32296;DHT22;18781;51.550;5.418;2022-08-07T00:54:47;17.80;54.30
32296;DHT22;18781;51.550;5.418;2022-08-07T00:57:13;17.80;54.00
32296;DHT22;18781;51.550;5.418;2022-08-07T00:59:38;17.80;53.90
32296;DHT22;18781;51.550;5.418;2022-08-07T01:02:05;17.80;54.00
32296;DHT22;18781;51.550;5.418;2022-08-07T01:04:31;17.70;54.20
32296;DHT22;18781;51.550;5.418;2022-08-07T01:06:57;17.70;54.30
32296;DHT22;18781;51.550;5.418;2022-08-07T01:09:24;17.70;54.40
32296;DHT22;18781;51.550;5.418;2022-08-07T01:11:52;17.60;54.20
32296;DHT22;18781;51.550;5.418;2022-08-07T01:14:19;17.60;54.90
32296;DHT22;18781;51.550;5.418;2022-08-07T01:16:46;17.50;54.50
32296;DHT22;18781;51.550;5.418;2022-08-07T01:19:12;17.50;54.40
32296;DHT22;18781;51.550;5.418;2022-08-07T01:21:39;17.50;54.70
32296;DHT22;18781;51.550;5.418;2022-08-07T01:24:06;17.40;54.60
32296;DHT22;18781;51.550;5.418;2022-08-07T01:26:32;17.40;55.10
32296;DHT22;18781;51.550;5.418;2022-08-07T01:28:58;17.40;54.90
32296;DHT22;18781;51.550;5.418;2022-08-07T01:31:24;17.40;55.10
32296;DHT22;18781;51.550;5.418;2022-08-07T01:33:56;17.40;55.10
32296;DHT22;18781;51.550;5.418;2022-08-07T01:36:25;17.30;55.00
32296;DHT22;18781;51.550;5.418;2022-08-07T01:38:52;17.30;55.30
32296;DHT22;18781;51.550;5.418;2022-08-07T01:41:19;17.30;55.40
32296;DHT22;18781;51.550;5.418;2022-08-07T01:43:45;17.20;55.40
32296;DHT22;18781;51.550;5.418;2022-08-07T01:46:11;17.20;55.40
32296;DHT22;18781;51.550;5.418;2022-08-07T01:48:39;17.20;55.40
32296;DHT22;18781;51.550;5.418;2022-08-07T01:51:22;17.20;55.50
32296;DHT22;18781;51.550;5.418;2022-08-07T01:53:56;17.10;55.60
32296;DHT22;18781;51.550;5.418;2022-08-07T01:56:32;17.10;56.30
32296;DHT22;18781;51.550;5.418;2022-08-07T01:59:05;17.10;56.50
32296;DHT22;18781;51.550;5.418;2022-08-07T02:01:35;17.00;56.20
32296;DHT22;18781;51.550;5.418;2022-08-07T02:04:12;17.00;56.00
32296;DHT22;18781;51.550;5.418;2022-08-07T02:06:40;17.00;56.40
32296;DHT22;18781;51.550;5.418;2022-08-07T02:09:09;17.00;56.00
32296;DHT22;18781;51.550;5.418;2022-08-07T02:11:38;16.90;56.20
32296;DHT22;18781;51.550;5.418;2022-08-07T02:14:05;16.90;56.30
32296;DHT22;18781;51.550;5.418;2022-08-07T02:16:34;16.90;56.20
32296;DHT22;18781;51.550;5.418;2022-08-07T02:19:03;16.80;56.30
32296;DHT22;18781;51.550;5.418;2022-08-07T02:21:31;16.80;56.10
32296;DHT22;18781;51.550;5.418;2022-08-07T02:23:58;16.80;56.30
32296;DHT22;18781;51.550;5.418;2022-08-07T02:26:25;16.70;56.40
32296;DHT22;18781;51.550;5.418;2022-08-07T02:28:52;16.70;56.30
32296;DHT22;18781;51.550;5.418;2022-08-07T02:31:19;16.70;56.50
32296;DHT22;18781;51.550;5.418;2022-08-07T02:33:46;16.70;56.60
32296;DHT22;18781;51.550;5.418;2022-08-07T02:36:15;16.70;56.50
32296;DHT22;18781;51.550;5.418;2022-08-07T02:38:41;16.60;56.50
32296;DHT22;18781;51.550;5.418;2022-08-07T02:41:07;16.60;56.50
32296;DHT22;18781;51.550;5.418;2022-08-07T02:43:35;16.60;56.70
32296;DHT22;18781;51.550;5.418;2022-08-07T02:46:03;16.60;56.90
32296;DHT22;18781;51.550;5.418;2022-08-07T02:48:30;16.50;56.80
32296;DHT22;18781;51.550;5.418;2022-08-07T02:50:56;16.50;56.80
32296;DHT22;18781;51.550;5.418;2022-08-07T02:53:27;16.50;56.90
32296;DHT22;18781;51.550;5.418;2022-08-07T02:55:56;16.50;57.10
32296;DHT22;18781;51.550;5.418;2022-08-07T02:58:23;16.50;57.10
32296;DHT22;18781;51.550;5.418;2022-08-07T03:00:51;16.40;57.10
32296;DHT22;18781;51.550;5.418;2022-08-07T03:03:18;16.40;57.30
32296;DHT22;18781;51.550;5.418;2022-08-07T03:05:45;16.40;57.30
32296;DHT22;18781;51.550;5.418;2022-08-07T03:08:11;16.40;57.20
32296;DHT22;18781;51.550;5.418;2022-08-07T03:10:38;16.40;57.20
32296;DHT22;18781;51.550;5.418;2022-08-07T03:13:05;16.30;57.30
32296;DHT22;18781;51.550;5.418;2022-08-07T03:15:31;16.30;58.00
32296;DHT22;18781;51.550;5.418;2022-08-07T03:17:57;16.30;57.50
32296;DHT22;18781;51.550;5.418;2022-08-07T03:20:23;16.30;57.50
32296;DHT22;18781;51.550;5.418;2022-08-07T03:22:51;16.20;57.60
32296;DHT22;18781;51.550;5.418;2022-08-07T03:25:18;16.20;57.80
32296;DHT22;18781;51.550;5.418;2022-08-07T03:27:45;16.20;57.70
32296;DHT22;18781;51.550;5.418;2022-08-07T03:30:13;16.20;57.90
32296;DHT22;18781;51.550;5.418;2022-08-07T03:32:41;16.10;58.00
32296;DHT22;18781;51.550;5.418;2022-08-07T03:35:13;16.10;58.30
32296;DHT22;18781;51.550;5.418;2022-08-07T03:37:43;16.10;58.50
32296;DHT22;18781;51.550;5.418;2022-08-07T03:40:09;16.10;58.30
32296;DHT22;18781;51.550;5.418;2022-08-07T03:42:36;16.10;58.00
32296;DHT22;18781;51.550;5.418;2022-08-07T03:45:03;16.00;57.80
32296;DHT22;18781;51.550;5.418;2022-08-07T03:47:29;16.00;58.00
32296;DHT22;18781;51.550;5.418;2022-08-07T03:49:58;16.00;58.00
32296;DHT22;18781;51.550;5.418;2022-08-07T03:52:26;15.90;58.40
32296;DHT22;18781;51.550;5.418;2022-08-07T03:54:53;15.90;58.30
32296;DHT22;18781;51.550;5.418;2022-08-07T03:57:21;15.90;58.30
32296;DHT22;18781;51.550;5.418;2022-08-07T03:59:48;15.90;58.30
32296;DHT22;18781;51.550;5.418;2022-08-07T04:02:13;15.90;58.40
32296;DHT22;18781;51.550;5.418;2022-08-07T04:04:41;15.80;58.20
32296;DHT22;18781;51.550;5.418;2022-08-07T04:07:07;15.90;58.50
32296;DHT22;18781;51.550;5.418;2022-08-07T04:09:34;15.80;58.40
32296;DHT22;18781;51.550;5.418;2022-08-07T04:12:01;15.80;58.80
32296;DHT22;18781;51.550;5.418;2022-08-07T04:14:27;15.80;58.80
32296;DHT22;18781;51.550;5.418;2022-08-07T04:16:52;15.80;58.60
32296;DHT22;18781;51.550;5.418;2022-08-07T04:19:18;15.80;58.70
32296;DHT22;18781;51.550;5.418;2022-08-07T04:21:44;15.70;58.80
32296;DHT22;18781;51.550;5.418;2022-08-07T04:24:10;15.70;58.90
32296;DHT22;18781;51.550;5.418;2022-08-07T04:26:40;15.70;58.90
32296;DHT22;18781;51.550;5.418;2022-08-07T04:29:06;15.70;59.20
32296;DHT22;18781;51.550;5.418;2022-08-07T04:31:38;15.70;58.90
32296;DHT22;18781;51.550;5.418;2022-08-07T04:34:05;15.70;59.10
32296;DHT22;18781;51.550;5.418;2022-08-07T04:36:31;15.70;59.20
32296;DHT22;18781;51.550;5.418;2022-08-07T04:38:57;15.60;59.40
32296;DHT22;18781;51.550;5.418;2022-08-07T04:41:23;15.60;59.60
32296;DHT22;18781;51.550;5.418;2022-08-07T04:43:48;15.60;59.70
32296;DHT22;18781;51.550;5.418;2022-08-07T04:46:27;15.60;59.80
32296;DHT22;18781;51.550;5.418;2022-08-07T04:49:09;15.60;60.40
32296;DHT22;18781;51.550;5.418;2022-08-07T04:57:46;15.60;60.80
32296;DHT22;18781;51.550;5.418;2022-08-07T05:00:35;15.60;61.30
32296;DHT22;18781;51.550;5.418;2022-08-07T05:03:43;15.60;61.40
32296;DHT22;18781;51.550;5.418;2022-08-07T05:06:15;15.60;61.40
32296;DHT22;18781;51.550;5.418;2022-08-07T05:11:30;15.60;61.90
32296;DHT22;18781;51.550;5.418;2022-08-07T05:14:42;15.60;62.30
32296;DHT22;18781;51.550;5.418;2022-08-07T05:17:16;15.60;62.50
32296;DHT22;18781;51.550;5.418;2022-08-07T05:19:50;15.60;62.40
32296;DHT22;18781;51.550;5.418;2022-08-07T05:22:19;15.60;62.80
32296;DHT22;18781;51.550;5.418;2022-08-07T05:24:46;15.70;62.30
32296;DHT22;18781;51.550;5.418;2022-08-07T05:27:14;15.70;62.20
32296;DHT22;18781;51.550;5.418;2022-08-07T05:29:41;15.70;62.40
32296;DHT22;18781;51.550;5.418;2022-08-07T05:32:09;15.80;62.60
32296;DHT22;18781;51.550;5.418;2022-08-07T05:34:36;15.80;62.70
32296;DHT22;18781;51.550;5.418;2022-08-07T05:37:03;15.80;62.60
32296;DHT22;18781;51.550;5.418;2022-08-07T05:39:28;15.90;62.80
32296;DHT22;18781;51.550;5.418;2022-08-07T05:41:54;15.90;62.90
32296;DHT22;18781;51.550;5.418;2022-08-07T05:44:20;16.00;62.90
32296;DHT22;18781;51.550;5.418;2022-08-07T05:46:50;16.00;62.90
32296;DHT22;18781;51.550;5.418;2022-08-07T05:49:16;16.10;63.50
32296;DHT22;18781;51.550;5.418;2022-08-07T05:51:43;16.20;63.10
32296;DHT22;18781;51.550;5.418;2022-08-07T05:54:10;16.20;63.30
32296;DHT22;18781;51.550;5.418;2022-08-07T05:56:38;16.30;63.40
32296;DHT22;18781;51.550;5.418;2022-08-07T05:59:05;16.40;63.70
32296;DHT22;18781;51.550;5.418;2022-08-07T06:01:34;16.50;63.30
32296;DHT22;18781;51.550;5.418;2022-08-07T06:04:00;16.50;62.60
32296;DHT22;18781;51.550;5.418;2022-08-07T06:06:28;16.60;63.00
32296;DHT22;18781;51.550;5.418;2022-08-07T06:08:53;16.60;63.00
32296;DHT22;18781;51.550;5.418;2022-08-07T06:11:19;16.70;63.00
32296;DHT22;18781;51.550;5.418;2022-08-07T06:13:45;16.80;63.10
32296;DHT22;18781;51.550;5.418;2022-08-07T06:16:12;16.90;63.00
32296;DHT22;18781;51.550;5.418;2022-08-07T06:18:39;17.00;63.00
32296;DHT22;18781;51.550;5.418;2022-08-07T06:21:05;17.00;63.00
32296;DHT22;18781;51.550;5.418;2022-08-07T06:23:32;17.10;62.80
32296;DHT22;18781;51.550;5.418;2022-08-07T06:25:59;17.20;62.60
32296;DHT22;18781;51.550;5.418;2022-08-07T06:28:24;17.20;62.60
32296;DHT22;18781;51.550;5.418;2022-08-07T06:30:50;17.30;62.50
32296;DHT22;18781;51.550;5.418;2022-08-07T06:33:17;17.40;62.40
32296;DHT22;18781;51.550;5.418;2022-08-07T06:35:43;17.40;62.40
32296;DHT22;18781;51.550;5.418;2022-08-07T06:38:09;17.50;62.40
32296;DHT22;18781;51.550;5.418;2022-08-07T06:40:46;17.60;62.30
32296;DHT22;18781;51.550;5.418;2022-08-07T06:43:12;17.70;62.60
32296;DHT22;18781;51.550;5.418;2022-08-07T06:45:40;17.70;62.20
32296;DHT22;18781;51.550;5.418;2022-08-07T06:48:05;17.80;62.10
32296;DHT22;18781;51.550;5.418;2022-08-07T06:50:33;17.90;61.90
32296;DHT22;18781;51.550;5.418;2022-08-07T06:53:02;17.90;61.80
32296;DHT22;18781;51.550;5.418;2022-08-07T06:55:31;18.00;61.70
32296;DHT22;18781;51.550;5.418;2022-08-07T06:58:06;18.10;61.70
32296;DHT22;18781;51.550;5.418;2022-08-07T07:00:37;18.20;61.70
32296;DHT22;18781;51.550;5.418;2022-08-07T07:03:03;18.30;61.30
32296;DHT22;18781;51.550;5.418;2022-08-07T07:05:30;18.30;60.80
32296;DHT22;18781;51.550;5.418;2022-08-07T07:07:55;18.40;60.30
32296;DHT22;18781;51.550;5.418;2022-08-07T07:10:31;18.40;60.30
32296;DHT22;18781;51.550;5.418;2022-08-07T07:13:10;18.50;60.30
32296;DHT22;18781;51.550;5.418;2022-08-07T07:15:41;18.60;60.80
32296;DHT22;18781;51.550;5.418;2022-08-07T07:18:29;18.70;60.30
32296;DHT22;18781;51.550;5.418;2022-08-07T07:20:58;18.80;59.90
32296;DHT22;18781;51.550;5.418;2022-08-07T07:23:26;18.90;60.00
32296;DHT22;18781;51.550;5.418;2022-08-07T07:25:58;19.00;60.10
32296;DHT22;18781;51.550;5.418;2022-08-07T07:28:28;19.10;59.70
32296;DHT22;18781;51.550;5.418;2022-08-07T07:31:00;19.30;59.50
32296;DHT22;18781;51.550;5.418;2022-08-07T07:33:27;19.30;59.30
32296;DHT22;18781;51.550;5.418;2022-08-07T07:35:56;19.40;59.10
32296;DHT22;18781;51.550;5.418;2022-08-07T07:38:23;19.50;59.00
32296;DHT22;18781;51.550;5.418;2022-08-07T07:40:53;19.60;59.10
32296;DHT22;18781;51.550;5.418;2022-08-07T07:43:21;19.70;58.90
32296;DHT22;18781;51.550;5.418;2022-08-07T07:45:49;19.80;59.00
32296;DHT22;18781;51.550;5.418;2022-08-07T07:48:19;19.90;58.00
32296;DHT22;18781;51.550;5.418;2022-08-07T07:50:47;20.00;57.90
32296;DHT22;18781;51.550;5.418;2022-08-07T07:53:14;20.10;57.70
32296;DHT22;18781;51.550;5.418;2022-08-07T07:55:41;20.20;57.70
32296;DHT22;18781;51.550;5.418;2022-08-07T07:58:07;20.30;57.60
32296;DHT22;18781;51.550;5.418;2022-08-07T08:00:34;20.40;57.10
32296;DHT22;18781;51.550;5.418;2022-08-07T08:03:05;20.40;57.20
32296;DHT22;18781;51.550;5.418;2022-08-07T08:05:35;20.50;57.10
32296;DHT22;18781;51.550;5.418;2022-08-07T08:08:02;20.60;57.60
32296;DHT22;18781;51.550;5.418;2022-08-07T08:10:29;20.70;57.10
32296;DHT22;18781;51.550;5.418;2022-08-07T08:12:55;20.80;56.80
32296;DHT22;18781;51.550;5.418;2022-08-07T08:15:22;20.90;57.00
32296;DHT22;18781;51.550;5.418;2022-08-07T08:17:48;21.00;56.60
32296;DHT22;18781;51.550;5.418;2022-08-07T08:20:14;21.10;56.20
32296;DHT22;18781;51.550;5.418;2022-08-07T08:22:42;21.20;55.70
32296;DHT22;18781;51.550;5.418;2022-08-07T08:25:29;21.30;55.60
32296;DHT22;18781;51.550;5.418;2022-08-07T08:28:22;21.40;55.10
32296;DHT22;18781;51.550;5.418;2022-08-07T08:30:52;21.40;54.50
32296;DHT22;18781;51.550;5.418;2022-08-07T08:33:19;21.50;54.70
32296;DHT22;18781;51.550;5.418;2022-08-07T08:35:50;21.60;54.40
32296;DHT22;18781;51.550;5.418;2022-08-07T08:38:21;21.70;53.90
32296;DHT22;18781;51.550;5.418;2022-08-07T08:41:00;21.70;54.50
32296;DHT22;18781;51.550;5.418;2022-08-07T08:46:04;21.90;53.60
32296;DHT22;18781;51.550;5.418;2022-08-07T08:51:18;22.10;53.60
32296;DHT22;18781;51.550;5.418;2022-08-07T08:53:53;22.10;53.80
32296;DHT22;18781;51.550;5.418;2022-08-07T08:56:25;22.20;53.30
32296;DHT22;18781;51.550;5.418;2022-08-07T09:04:35;22.50;52.00
32296;DHT22;18781;51.550;5.418;2022-08-07T09:07:13;22.70;51.90
32296;DHT22;18781;51.550;5.418;2022-08-07T09:09:57;22.70;50.90
32296;DHT22;18781;51.550;5.418;2022-08-07T09:12:39;22.80;50.40
32296;DHT22;18781;51.550;5.418;2022-08-07T09:20:58;23.10;50.90
32296;DHT22;18781;51.550;5.418;2022-08-07T09:23:46;23.20;50.70
32296;DHT22;18781;51.550;5.418;2022-08-07T09:26:32;23.30;50.20
32296;DHT22;18781;51.550;5.418;2022-08-07T09:29:20;23.30;48.90
32296;DHT22;18781;51.550;5.418;2022-08-07T09:32:11;23.40;49.80
32296;DHT22;18781;51.550;5.418;2022-08-07T09:34:57;23.40;48.90
32296;DHT22;18781;51.550;5.418;2022-08-07T09:40:27;23.60;48.30
32296;DHT22;18781;51.550;5.418;2022-08-07T09:54:06;24.10;49.10
32296;DHT22;18781;51.550;5.418;2022-08-07T09:57:16;24.10;47.20
32296;DHT22;18781;51.550;5.418;2022-08-07T10:00:04;24.20;47.70
32296;DHT22;18781;51.550;5.418;2022-08-07T10:02:51;24.30;47.30
32296;DHT22;18781;51.550;5.418;2022-08-07T10:11:34;24.50;46.60
32296;DHT22;18781;51.550;5.418;2022-08-07T10:22:27;24.80;44.70
32296;DHT22;18781;51.550;5.418;2022-08-07T10:25:29;24.80;45.00
32296;DHT22;18781;51.550;5.418;2022-08-07T10:45:02;25.30;42.90
32296;DHT22;18781;51.550;5.418;2022-08-07T10:47:55;25.30;43.20
32296;DHT22;18781;51.550;5.418;2022-08-07T10:50:28;25.40;43.80
32296;DHT22;18781;51.550;5.418;2022-08-07T10:56:08;25.60;42.70
32296;DHT22;18781;51.550;5.418;2022-08-07T11:07:03;25.70;41.30
32296;DHT22;18781;51.550;5.418;2022-08-07T11:09:41;25.80;40.20
32296;DHT22;18781;51.550;5.418;2022-08-07T11:12:20;25.90;40.40
32296;DHT22;18781;51.550;5.418;2022-08-07T11:14:59;25.90;40.40
32296;DHT22;18781;51.550;5.418;2022-08-07T11:17:35;26.00;40.40
32296;DHT22;18781;51.550;5.418;2022-08-07T11:20:10;26.00;40.50
32296;DHT22;18781;51.550;5.418;2022-08-07T11:25:22;26.20;40.60
32296;DHT22;18781;51.550;5.418;2022-08-07T11:28:15;26.30;39.90
32296;DHT22;18781;51.550;5.418;2022-08-07T11:30:52;26.40;40.30
32296;DHT22;18781;51.550;5.418;2022-08-07T11:41:23;26.60;38.80
32296;DHT22;18781;51.550;5.418;2022-08-07T11:44:34;26.60;39.30
32296;DHT22;18781;51.550;5.418;2022-08-07T11:47:11;26.80;40.50
32296;DHT22;18781;51.550;5.418;2022-08-07T12:03:55;27.30;36.60
32296;DHT22;18781;51.550;5.418;2022-08-07T12:06:55;27.40;36.80
32296;DHT22;18781;51.550;5.418;2022-08-07T12:09:32;27.40;38.20
32296;DHT22;18781;51.550;5.418;2022-08-07T12:12:08;27.40;36.80
32296;DHT22;18781;51.550;5.418;2022-08-07T12:17:36;27.40;37.30
32296;DHT22;18781;51.550;5.418;2022-08-07T12:20:19;27.50;36.00
32296;DHT22;18781;51.550;5.418;2022-08-07T12:23:08;27.40;36.60
32296;DHT22;18781;51.550;5.418;2022-08-07T12:25:57;27.50;36.80
32296;DHT22;18781;51.550;5.418;2022-08-07T12:33:54;27.70;36.50
32296;DHT22;18781;51.550;5.418;2022-08-07T12:36:22;27.80;36.80
32296;DHT22;18781;51.550;5.418;2022-08-07T12:38:49;27.90;36.60
32296;DHT22;18781;51.550;5.418;2022-08-07T12:41:15;27.90;36.90
32296;DHT22;18781;51.550;5.418;2022-08-07T12:43:43;28.00;36.70
32296;DHT22;18781;51.550;5.418;2022-08-07T12:51:34;28.30;35.20
32296;DHT22;18781;51.550;5.418;2022-08-07T12:56:40;28.30;34.70
32296;DHT22;18781;51.550;5.418;2022-08-07T12:59:07;28.30;34.30
32296;DHT22;18781;51.550;5.418;2022-08-07T13:11:23;28.30;35.10
32296;DHT22;18781;51.550;5.418;2022-08-07T13:14:09;28.30;34.80
32296;DHT22;18781;51.550;5.418;2022-08-07T13:19:13;28.30;34.40
32296;DHT22;18781;51.550;5.418;2022-08-07T13:21:49;28.30;33.70
32296;DHT22;18781;51.550;5.418;2022-08-07T13:24:39;28.40;33.50
32296;DHT22;18781;51.550;5.418;2022-08-07T13:27:27;28.40;34.00
32296;DHT22;18781;51.550;5.418;2022-08-07T13:30:02;28.40;33.80
32296;DHT22;18781;51.550;5.418;2022-08-07T13:35:35;28.50;35.20
32296;DHT22;18781;51.550;5.418;2022-08-07T13:38:22;28.50;34.60
32296;DHT22;18781;51.550;5.418;2022-08-07T13:43:20;28.50;33.30
32296;DHT22;18781;51.550;5.418;2022-08-07T13:45:53;28.50;33.40
32296;DHT22;18781;51.550;5.418;2022-08-07T13:48:20;28.50;33.30
32296;DHT22;18781;51.550;5.418;2022-08-07T13:50:48;28.50;33.00
32296;DHT22;18781;51.550;5.418;2022-08-07T13:53:21;28.50;33.50
32296;DHT22;18781;51.550;5.418;2022-08-07T13:55:48;28.50;34.10
32296;DHT22;18781;51.550;5.418;2022-08-07T13:58:15;28.50;33.60
32296;DHT22;18781;51.550;5.418;2022-08-07T14:01:15;28.60;33.20
32296;DHT22;18781;51.550;5.418;2022-08-07T14:03:43;28.60;34.50
32296;DHT22;18781;51.550;5.418;2022-08-07T14:06:10;28.60;32.90
32296;DHT22;18781;51.550;5.418;2022-08-07T14:08:42;28.60;33.10
32296;DHT22;18781;51.550;5.418;2022-08-07T14:11:11;28.60;32.80
32296;DHT22;18781;51.550;5.418;2022-08-07T14:13:39;28.60;32.60
32296;DHT22;18781;51.550;5.418;2022-08-07T14:16:08;28.60;32.10
32296;DHT22;18781;51.550;5.418;2022-08-07T14:18:37;28.50;32.50
32296;DHT22;18781;51.550;5.418;2022-08-07T14:21:08;28.50;33.90
32296;DHT22;18781;51.550;5.418;2022-08-07T14:23:34;28.50;33.10
32296;DHT22;18781;51.550;5.418;2022-08-07T14:26:11;28.60;32.40
32296;DHT22;18781;51.550;5.418;2022-08-07T14:28:41;28.60;33.70
32296;DHT22;18781;51.550;5.418;2022-08-07T14:31:08;28.60;33.60
32296;DHT22;18781;51.550;5.418;2022-08-07T14:33:35;28.60;33.30
32296;DHT22;18781;51.550;5.418;2022-08-07T14:36:02;28.70;31.70
32296;DHT22;18781;51.550;5.418;2022-08-07T14:38:29;28.70;32.40
32296;DHT22;18781;51.550;5.418;2022-08-07T14:41:06;28.70;32.60
32296;DHT22;18781;51.550;5.418;2022-08-07T14:43:34;28.70;32.10
32296;DHT22;18781;51.550;5.418;2022-08-07T14:46:03;28.70;32.30
32296;DHT22;18781;51.550;5.418;2022-08-07T14:48:37;28.70;32.60
32296;DHT22;18781;51.550;5.418;2022-08-07T14:51:07;28.70;32.20
32296;DHT22;18781;51.550;5.418;2022-08-07T14:53:39;28.70;32.50
32296;DHT22;18781;51.550;5.418;2022-08-07T14:56:07;28.80;32.60
32296;DHT22;18781;51.550;5.418;2022-08-07T14:58:36;28.80;32.70
32296;DHT22;18781;51.550;5.418;2022-08-07T15:01:04;28.80;33.00
32296;DHT22;18781;51.550;5.418;2022-08-07T15:03:31;28.90;32.20
32296;DHT22;18781;51.550;5.418;2022-08-07T15:05:58;28.90;31.90
32296;DHT22;18781;51.550;5.418;2022-08-07T15:08:31;28.90;32.00
32296;DHT22;18781;51.550;5.418;2022-08-07T15:11:13;28.90;31.30
32296;DHT22;18781;51.550;5.418;2022-08-07T15:13:55;28.90;31.90
32296;DHT22;18781;51.550;5.418;2022-08-07T15:16:32;28.80;32.00
32296;DHT22;18781;51.550;5.418;2022-08-07T15:19:00;28.80;32.50
32296;DHT22;18781;51.550;5.418;2022-08-07T15:21:35;28.80;33.20
32296;DHT22;18781;51.550;5.418;2022-08-07T15:24:04;28.80;32.60
32296;DHT22;18781;51.550;5.418;2022-08-07T15:26:41;28.80;32.40
32296;DHT22;18781;51.550;5.418;2022-08-07T15:29:10;28.80;31.70
32296;DHT22;18781;51.550;5.418;2022-08-07T15:31:39;28.80;31.90
32296;DHT22;18781;51.550;5.418;2022-08-07T15:34:06;28.80;32.00
32296;DHT22;18781;51.550;5.418;2022-08-07T15:36:33;28.80;32.10
32296;DHT22;18781;51.550;5.418;2022-08-07T15:39:07;28.80;32.10
32296;DHT22;18781;51.550;5.418;2022-08-07T15:42:00;28.70;31.50
32296;DHT22;18781;51.550;5.418;2022-08-07T15:44:29;28.70;32.00
32296;DHT22;18781;51.550;5.418;2022-08-07T15:47:07;28.70;31.70
32296;DHT22;18781;51.550;5.418;2022-08-07T15:49:34;28.70;32.70
32296;DHT22;18781;51.550;5.418;2022-08-07T15:52:01;28.70;31.90
32296;DHT22;18781;51.550;5.418;2022-08-07T15:54:35;28.70;31.90
32296;DHT22;18781;51.550;5.418;2022-08-07T15:57:02;28.80;32.30
32296;DHT22;18781;51.550;5.418;2022-08-07T15:59:29;28.80;31.80
32296;DHT22;18781;51.550;5.418;2022-08-07T16:01:55;28.80;31.90
32296;DHT22;18781;51.550;5.418;2022-08-07T16:04:30;28.80;32.00
32296;DHT22;18781;51.550;5.418;2022-08-07T16:28:20;28.60;32.20
32296;DHT22;18781;51.550;5.418;2022-08-07T16:33:49;28.60;32.70
32296;DHT22;18781;51.550;5.418;2022-08-07T16:36:19;28.50;33.20
32296;DHT22;18781;51.550;5.418;2022-08-07T16:46:59;28.50;33.10
32296;DHT22;18781;51.550;5.418;2022-08-07T16:49:34;28.50;33.40
32296;DHT22;18781;51.550;5.418;2022-08-07T16:52:22;28.40;33.30
32296;DHT22;18781;51.550;5.418;2022-08-07T17:00:50;28.40;33.70
32296;DHT22;18781;51.550;5.418;2022-08-07T17:03:37;28.40;33.50
32296;DHT22;18781;51.550;5.418;2022-08-07T17:08:49;28.30;34.30
32296;DHT22;18781;51.550;5.418;2022-08-07T17:11:58;28.30;34.30
32296;DHT22;18781;51.550;5.418;2022-08-07T17:14:55;28.20;34.70
32296;DHT22;18781;51.550;5.418;2022-08-07T17:20:35;28.10;34.60
32296;DHT22;18781;51.550;5.418;2022-08-07T17:34:28;27.90;34.70
32296;DHT22;18781;51.550;5.418;2022-08-07T17:37:25;27.90;34.60
32296;DHT22;18781;51.550;5.418;2022-08-07T17:40:01;27.80;34.90
32296;DHT22;18781;51.550;5.418;2022-08-07T17:45:06;27.70;35.30
32296;DHT22;18781;51.550;5.418;2022-08-07T17:47:47;27.60;35.10
32296;DHT22;18781;51.550;5.418;2022-08-07T17:53:32;27.60;35.30
32296;DHT22;18781;51.550;5.418;2022-08-07T17:56:07;27.50;35.50
32296;DHT22;18781;51.550;5.418;2022-08-07T17:58:36;27.40;35.90
32296;DHT22;18781;51.550;5.418;2022-08-07T18:01:10;27.40;35.90
32296;DHT22;18781;51.550;5.418;2022-08-07T18:06:42;27.30;36.10
32296;DHT22;18781;51.550;5.418;2022-08-07T18:09:19;27.20;36.40
32296;DHT22;18781;51.550;5.418;2022-08-07T18:11:50;27.20;36.60
32296;DHT22;18781;51.550;5.418;2022-08-07T18:14:41;27.10;36.80
32296;DHT22;18781;51.550;5.418;2022-08-07T18:20:05;27.00;36.80
32296;DHT22;18781;51.550;5.418;2022-08-07T18:22:47;26.90;37.00
32296;DHT22;18781;51.550;5.418;2022-08-07T18:25:23;26.90;37.10
32296;DHT22;18781;51.550;5.418;2022-08-07T18:28:11;26.80;37.30
32296;DHT22;18781;51.550;5.418;2022-08-07T18:47:49;26.20;37.60
32296;DHT22;18781;51.550;5.418;2022-08-07T18:53:45;26.10;38.30
32296;DHT22;18781;51.550;5.418;2022-08-07T19:07:20;25.70;38.30
32296;DHT22;18781;51.550;5.418;2022-08-07T19:10:04;25.60;38.70
32296;DHT22;18781;51.550;5.418;2022-08-07T19:12:46;25.60;38.70
32296;DHT22;18781;51.550;5.418;2022-08-07T19:18:19;25.40;38.90
32296;DHT22;18781;51.550;5.418;2022-08-07T19:21:00;25.30;39.00
32296;DHT22;18781;51.550;5.418;2022-08-07T19:26:02;25.20;39.60
32296;DHT22;18781;51.550;5.418;2022-08-07T19:28:33;25.10;39.50
32296;DHT22;18781;51.550;5.418;2022-08-07T19:31:35;25.00;39.70
32296;DHT22;18781;51.550;5.418;2022-08-07T19:34:05;24.90;39.40
32296;DHT22;18781;51.550;5.418;2022-08-07T19:36:39;24.90;39.80
32296;DHT22;18781;51.550;5.418;2022-08-07T19:39:09;24.80;40.10
32296;DHT22;18781;51.550;5.418;2022-08-07T19:41:55;24.70;40.20
32296;DHT22;18781;51.550;5.418;2022-08-07T19:44:36;24.60;40.30
32296;DHT22;18781;51.550;5.418;2022-08-07T19:47:08;24.50;40.60
32296;DHT22;18781;51.550;5.418;2022-08-07T19:49:43;24.40;40.80
32296;DHT22;18781;51.550;5.418;2022-08-07T19:52:11;24.40;40.90
32296;DHT22;18781;51.550;5.418;2022-08-07T19:54:46;24.30;40.90
32296;DHT22;18781;51.550;5.418;2022-08-07T19:57:15;24.20;41.30
32296;DHT22;18781;51.550;5.418;2022-08-07T19:59:45;24.20;41.60
32296;DHT22;18781;51.550;5.418;2022-08-07T20:02:25;24.10;41.70
32296;DHT22;18781;51.550;5.418;2022-08-07T20:04:52;24.00;41.80